Time;durP1;ratioP1;P1;durP2;ratioP2;P2;SDS_P1;SDS_P2;PMS_P1;PMS_P2;Temp;Humidity;BMP_temperature;BMP_pressure;BME280_temperature;BME280_humidity;BME280_pressure;Samples;Min_cycle;Max_cycle;Signal;HPM_P1;HPM_P2
2021/10/26 00:00:42;;;;;;;10.13;6.13;;;;;;;8.98;74.51;100309.41;1087774;54;20026;-77
2021/10/26 00:01:44;;;;;;;9.65;6.32;;;;;;;8.83;74.86;100308.84;1087797;54;20030;-77
2021/10/26 00:02:48;;;;;;;9.55;6.38;;;;;;;8.89;74.96;100313.66;1087830;54;20034;-76
2021/10/26 00:03:51;;;;;;;10.70;7.10;;;;;;;8.88;75.22;100297.81;1087629;54;20042;-77
2021/10/26 00:04:55;;;;;;;10.65;7.40;;;;;;;8.76;75.23;100310.34;1087782;54;20037;-77
2021/10/26 00:05:56;;;;;;;10.05;6.88;;;;;;;8.83;75.38;100311.53;1089258;46;20042;-76
2021/10/26 00:07:00;;;;;;;11.13;7.10;;;;;;;8.89;74.88;100316.34;1087765;54;20041;-76
2021/10/26 00:08:02;;;;;;;14.57;7.50;;;;;;;8.90;74.97;100314.53;1087711;54;20030;-76
2021/10/26 00:09:08;;;;;;;9.93;6.82;;;;;;;8.94;74.97;100315.13;1087744;54;20042;-77
2021/10/26 00:10:12;;;;;;;9.40;6.80;;;;;;;8.96;74.84;100321.19;1088051;39;20270;-77
2021/10/26 00:11:16;;;;;;;12.73;7.20;;;;;;;8.95;74.92;100308.81;1087683;54;20030;-76
2021/10/26 00:12:20;;;;;;;12.38;7.18;;;;;;;8.86;74.89;100327.28;1087613;54;20030;-76
2021/10/26 00:13:23;;;;;;;9.32;6.28;;;;;;;8.88;75.00;100319.97;1087657;54;20034;-77
2021/10/26 00:14:28;;;;;;;9.82;6.30;;;;;;;8.97;75.09;100317.53;1087779;54;20058;-76
2021/10/26 00:15:30;;;;;;;11.05;7.25;;;;;;;8.98;74.71;100319.22;1087663;54;20094;-77
2021/10/26 00:16:34;;;;;;;9.50;6.53;;;;;;;8.97;74.77;100314.88;1087667;54;20883;-77
2021/10/26 00:17:35;;;;;;;10.40;6.90;;;;;;;9.02;74.82;100318.81;1087678;54;20030;-77
2021/10/26 00:18:40;;;;;;;11.32;7.82;;;;;;;8.97;75.00;100320.22;1088603;39;20586;-77
2021/10/26 00:19:41;;;;;;;13.00;6.88;;;;;;;8.93;74.93;100324.91;1087773;54;20030;-77
2021/10/26 00:20:45;;;;;;;9.88;7.00;;;;;;;8.94;74.91;100329.28;1087700;54;20054;-77
2021/10/26 00:21:47;;;;;;;9.88;6.15;;;;;;;8.99;74.97;100316.44;1087747;54;20034;-77
2021/10/26 00:22:51;;;;;;;9.95;6.90;;;;;;;8.99;74.97;100327.09;1087759;54;20113;-76
2021/10/26 00:23:53;;;;;;;9.70;6.70;;;;;;;9.01;74.90;100326.97;1087622;54;20810;-77
2021/10/26 00:24:57;;;;;;;9.13;6.90;;;;;;;9.01;74.73;100318.97;1087764;54;20030;-77
2021/10/26 00:26:04;;;;;;;10.43;6.90;;;;;;;9.07;74.87;100331.78;1087593;54;20054;-78
2021/10/26 00:27:08;;;;;;;8.77;5.70;;;;;;;9.13;74.62;100331.28;1087676;54;20029;-76
2021/10/26 00:28:09;;;;;;;9.18;6.00;;;;;;;9.13;74.70;100339.28;1087701;54;20055;-76
2021/10/26 00:29:14;;;;;;;8.98;6.18;;;;;;;9.19;74.29;100333.44;1087762;54;20038;-76
2021/10/26 00:30:16;;;;;;;9.02;6.03;;;;;;;9.14;74.73;100335.66;1089444;46;20041;-77
2021/10/26 00:31:20;;;;;;;9.63;5.97;;;;;;;9.17;74.62;100334.53;1087664;54;20049;-77
2021/10/26 00:32:22;;;;;;;9.93;5.93;;;;;;;9.19;74.44;100327.25;1087770;46;20034;-77
2021/10/26 00:33:26;;;;;;;10.07;6.85;;;;;;;9.23;74.40;100333.19;1087657;54;20035;-77
2021/10/26 00:34:28;;;;;;;12.43;6.85;;;;;;;9.18;74.70;100331.72;1087719;54;20034;-77
2021/10/26 00:35:32;;;;;;;8.82;6.10;;;;;;;9.25;74.43;100336.56;1087630;54;20053;-78
2021/10/26 00:36:34;;;;;;;9.13;5.70;;;;;;;9.27;74.51;100332.78;1087705;54;20048;-77
2021/10/26 00:37:39;;;;;;;8.63;6.13;;;;;;;9.28;74.33;100328.28;1087665;54;20037;-77
2021/10/26 00:38:40;;;;;;;9.60;6.55;;;;;;;9.26;74.65;100348.94;1087655;54;20027;-77
2021/10/26 00:39:45;;;;;;;8.88;6.28;;;;;;;9.32;74.55;100332.41;1087750;54;20030;-77
2021/10/26 00:40:47;;;;;;;9.57;6.53;;;;;;;9.28;74.37;100341.63;1087764;54;20034;-76
2021/10/26 00:41:54;;;;;;;9.73;6.50;;;;;;;9.24;74.64;100346.38;1087731;54;20030;-77
2021/10/26 00:42:56;;;;;;;11.77;6.93;;;;;;;9.18;74.89;100347.72;1087688;54;20030;-76
2021/10/26 00:44:01;;;;;;;9.75;6.68;;;;;;;9.22;74.63;100348.31;1087726;54;20034;-77
2021/10/26 00:45:03;;;;;;;11.85;7.70;;;;;;;9.20;75.05;100340.47;1087441;54;20115;-76
2021/10/26 00:46:07;;;;;;;10.20;6.95;;;;;;;9.14;75.00;100343.66;1087695;54;20035;-77
2021/10/26 00:47:09;;;;;;;9.77;6.68;;;;;;;9.23;74.84;100341.19;1087580;54;20038;-77
2021/10/26 00:48:13;;;;;;;10.15;6.80;;;;;;;9.25;74.93;100347.25;1087338;54;20061;-77
2021/10/26 00:49:15;;;;;;;9.70;6.50;;;;;;;9.28;74.54;100347.81;1087658;54;20034;-76
2021/10/26 00:50:19;;;;;;;10.35;6.78;;;;;;;9.30;74.86;100345.00;1087765;54;20120;-76
2021/10/26 00:51:21;;;;;;;9.27;6.18;;;;;;;9.33;74.60;100350.09;1087759;54;20063;-79
2021/10/26 00:52:26;;;;;;;9.50;6.47;;;;;;;9.36;74.47;100352.50;1087784;54;20055;-77
2021/10/26 00:53:31;;;;;;;11.23;6.40;;;;;;;9.39;74.40;100357.59;1087606;54;20038;-76
2021/10/26 00:54:33;;;;;;;8.13;5.40;;;;;;;9.44;74.60;100350.06;1087716;54;20034;-77
2021/10/26 00:55:38;;;;;;;9.00;6.05;;;;;;;9.45;74.22;100356.22;1087654;54;20034;-76
2021/10/26 00:56:40;;;;;;;8.75;6.03;;;;;;;9.40;74.80;100345.94;1087678;54;20038;-77
2021/10/26 00:57:47;;;;;;;10.23;6.97;;;;;;;9.35;74.82;100345.50;1087799;54;20034;-76
2021/10/26 00:58:48;;;;;;;11.20;7.20;;;;;;;9.34;74.97;100351.81;1087581;54;20042;-77
2021/10/26 00:59:53;;;;;;;11.48;8.18;;;;;;;9.27;74.99;100354.13;1087745;54;20034;-77
2021/10/26 01:00:55;;;;;;;13.40;7.78;;;;;;;9.25;75.02;100347.25;1087740;54;20034;-76
2021/10/26 01:01:59;;;;;;;10.77;7.65;;;;;;;9.26;74.88;100352.44;1087723;54;20116;-77
2021/10/26 01:03:01;;;;;;;11.30;7.28;;;;;;;9.24;75.03;100346.38;1087723;54;20042;-77
2021/10/26 01:04:05;;;;;;;11.00;7.10;;;;;;;9.24;75.15;100346.38;1087678;54;20056;-78
2021/10/26 01:05:08;;;;;;;12.32;7.43;;;;;;;9.28;74.97;100350.50;1087711;54;20062;-77
2021/10/26 01:06:13;;;;;;;13.48;7.30;;;;;;;9.34;74.92;100357.13;1087692;54;20733;-77
2021/10/26 01:07:14;;;;;;;10.65;6.93;;;;;;;9.35;74.76;100348.16;1087758;54;20068;-77
2021/10/26 01:08:19;;;;;;;14.68;6.97;;;;;;;9.36;74.82;100350.69;1087723;54;20041;-77
2021/10/26 01:09:21;;;;;;;10.55;6.30;;;;;;;9.42;74.66;100360.00;1087646;54;20026;-76
2021/10/26 01:10:25;;;;;;;8.85;5.90;;;;;;;9.44;74.63;100354.53;1087693;54;20034;-76
2021/10/26 01:11:27;;;;;;;11.02;7.13;;;;;;;9.46;74.55;100350.75;1087612;54;20030;-77
2021/10/26 01:12:32;;;;;;;9.45;6.18;;;;;;;9.47;74.54;100354.28;1087614;54;20925;-76
2021/10/26 01:13:37;;;;;;;10.68;7.15;;;;;;;9.46;74.58;100349.91;1087592;54;20034;-78
2021/10/26 01:14:41;;;;;;;10.27;6.78;;;;;;;9.50;74.38;100348.66;1088149;39;20640;-77
2021/10/26 01:15:43;;;;;;;9.45;6.70;;;;;;;9.50;74.58;100354.84;1087769;54;20030;-77
2021/10/26 01:16:47;;;;;;;9.13;6.50;;;;;;;9.54;74.35;100347.44;1089456;46;20019;-76
2021/10/26 01:17:49;;;;;;;9.88;6.32;;;;;;;9.51;74.42;100348.53;1087998;54;20022;-78
2021/10/26 01:18:53;;;;;;;9.93;7.07;;;;;;;9.51;74.51;100353.03;1087882;54;20034;-77
2021/10/26 01:19:57;;;;;;;8.30;5.70;;;;;;;9.55;74.15;100356.25;1087978;54;20042;-77
2021/10/26 01:21:02;;;;;;;9.40;5.95;;;;;;;9.60;74.22;100354.06;1087615;54;20042;-77
2021/10/26 01:22:03;;;;;;;9.07;5.80;;;;;;;9.61;74.13;100347.75;1087711;54;20034;-77
2021/10/26 01:23:08;;;;;;;8.55;5.82;;;;;;;9.64;74.14;100340.34;1087611;54;20074;-77
2021/10/26 01:24:10;;;;;;;8.38;5.50;;;;;;;9.66;73.74;100345.53;1087749;54;20059;-77
2021/10/26 01:25:16;;;;;;;10.90;6.05;;;;;;;9.70;73.67;100338.09;1087680;54;20090;-77
2021/10/26 01:26:18;;;;;;;8.40;5.55;;;;;;;9.73;73.90;100354.69;1087650;54;20030;-77
2021/10/26 01:27:23;;;;;;;8.95;5.82;;;;;;;9.76;73.81;100349.09;1087738;54;20034;-77
2021/10/26 01:28:25;;;;;;;7.78;5.38;;;;;;;9.78;73.66;100349.81;1087553;54;21220;-77
2021/10/26 01:29:30;;;;;;;8.43;5.65;;;;;;;9.79;73.75;100345.31;1089651;39;20638;-78
2021/10/26 01:30:34;;;;;;;9.63;5.80;;;;;;;9.80;73.74;100358.56;1087705;54;20050;-77
2021/10/26 01:31:38;;;;;;;9.52;5.68;;;;;;;9.80;73.71;100358.56;1087472;54;20051;-76
